EVY23 YSSY-YSCB
Flight info
| Callsign | EVY23 |
|---|---|
| Flight time | 0h 35m |
| Altitude | 20000 |
| Route | WOL H65 CB |
| Aircraft | B738/M-SDE2E3FGHIRWXY/LB1 |
Departure
| Time | 2026-04-25 03:13 |
|---|---|
| Airport | Sydney Kingsford Smith International Airport (YSSY) |
Arrival
| Time | 2026-04-25 03:48 |
|---|---|
| Airport | Canberra Airport (YSCB) |
| Time | Latitude | Longitude | Altitude | Speed | Heading |
|---|---|---|---|---|---|
| 2026-04-25 02:40 | -33.93511 | 151.19033 | 34 ft | 0 kts | 165° |
| 2026-04-25 02:52 | -33.93512 | 151.19033 | 34 ft | 0 kts | 165° |
| 2026-04-25 02:52 | -33.93537 | 151.19041 | 29 ft | 10 kts | 170° |
| 2026-04-25 02:52 | -33.93577 | 151.19015 | 29 ft | 7 kts | 249° |
| 2026-04-25 02:53 | -33.93592 | 151.18943 | 29 ft | 11 kts | 255° |
| 2026-04-25 02:53 | -33.93596 | 151.18811 | 29 ft | 20 kts | 260° |
| 2026-04-25 02:53 | -33.93635 | 151.18642 | 29 ft | 21 kts | 254° |
| 2026-04-25 02:53 | -33.93674 | 151.18475 | 29 ft | 20 kts | 254° |
| 2026-04-25 02:54 | -33.93713 | 151.18314 | 29 ft | 20 kts | 253° |
| 2026-04-25 02:54 | -33.93750 | 151.18158 | 29 ft | 19 kts | 254° |
| 2026-04-25 02:54 | -33.93776 | 151.18048 | 29 ft | 22 kts | 255° |
| 2026-04-25 02:54 | -33.93818 | 151.17870 | 29 ft | 22 kts | 254° |
| 2026-04-25 02:55 | -33.93896 | 151.17780 | 29 ft | 15 kts | 173° |
| 2026-04-25 02:55 | -33.94028 | 151.17812 | 28 ft | 21 kts | 168° |
| 2026-04-25 02:55 | -33.94172 | 151.17849 | 29 ft | 21 kts | 168° |
| 2026-04-25 02:55 | -33.94311 | 151.17885 | 29 ft | 20 kts | 168° |
| 2026-04-25 02:56 | -33.94446 | 151.17907 | 29 ft | 20 kts | 194° |
| 2026-04-25 02:56 | -33.94577 | 151.17896 | 29 ft | 20 kts | 167° |
| 2026-04-25 02:56 | -33.94714 | 151.17932 | 29 ft | 22 kts | 168° |
| 2026-04-25 02:56 | -33.94869 | 151.17973 | 29 ft | 23 kts | 167° |
| 2026-04-25 02:57 | -33.95024 | 151.18013 | 29 ft | 22 kts | 167° |
| 2026-04-25 02:57 | -33.95092 | 151.18135 | 29 ft | 17 kts | 79° |
| 2026-04-25 02:57 | -33.95071 | 151.18258 | 29 ft | 15 kts | 78° |
| 2026-04-25 02:57 | -33.95051 | 151.18375 | 29 ft | 14 kts | 78° |
| 2026-04-25 02:58 | -33.95054 | 151.18486 | 28 ft | 13 kts | 123° |
| 2026-04-25 02:58 | -33.95124 | 151.18555 | 29 ft | 13 kts | 138° |
| 2026-04-25 02:58 | -33.95201 | 151.18639 | 29 ft | 18 kts | 138° |
| 2026-04-25 02:58 | -33.95313 | 151.18717 | 29 ft | 19 kts | 164° |
| 2026-04-25 02:59 | -33.95437 | 151.18751 | 29 ft | 18 kts | 168° |
| 2026-04-25 02:59 | -33.95557 | 151.18782 | 29 ft | 17 kts | 168° |
| 2026-04-25 02:59 | -33.95673 | 151.18811 | 29 ft | 17 kts | 168° |
| 2026-04-25 02:59 | -33.95785 | 151.18840 | 29 ft | 17 kts | 168° |
| 2026-04-25 03:00 | -33.95909 | 151.18872 | 29 ft | 23 kts | 167° |
| 2026-04-25 03:00 | -33.96078 | 151.18917 | 29 ft | 25 kts | 168° |
| 2026-04-25 03:00 | -33.96245 | 151.18960 | 29 ft | 24 kts | 168° |
| 2026-04-25 03:00 | -33.96402 | 151.19000 | 29 ft | 23 kts | 167° |
| 2026-04-25 03:01 | -33.96545 | 151.19038 | 29 ft | 20 kts | 167° |
| 2026-04-25 03:01 | -33.96670 | 151.19069 | 29 ft | 17 kts | 171° |
| 2026-04-25 03:01 | -33.96785 | 151.19063 | 29 ft | 16 kts | 184° |
| 2026-04-25 03:01 | -33.96834 | 151.19071 | 29 ft | 3 kts | 168° |
| 2026-04-25 03:02 | -33.96879 | 151.19081 | 29 ft | 8 kts | 169° |
| 2026-04-25 03:02 | -33.96915 | 151.19090 | 29 ft | 6 kts | 168° |
| 2026-04-25 03:02 | -33.96951 | 151.19099 | 29 ft | 6 kts | 168° |
| 2026-04-25 03:02 | -33.97017 | 151.19115 | 29 ft | 12 kts | 169° |
| 2026-04-25 03:03 | -33.97097 | 151.19136 | 29 ft | 12 kts | 159° |
| 2026-04-25 03:03 | -33.97125 | 151.19207 | 29 ft | 6 kts | 79° |
| 2026-04-25 03:03 | -33.97125 | 151.19209 | 29 ft | 0 kts | 78° |
| 2026-04-25 03:05 | -33.97116 | 151.19258 | 28 ft | 5 kts | 78° |
| 2026-04-25 03:05 | -33.97116 | 151.19259 | 28 ft | 0 kts | 78° |
| 2026-04-25 03:10 | -33.97105 | 151.19318 | 30 ft | 15 kts | 78° |
| 2026-04-25 03:10 | -33.97068 | 151.19370 | 28 ft | 7 kts | 8° |
| 2026-04-25 03:10 | -33.97020 | 151.19362 | 25 ft | 7 kts | 347° |
| 2026-04-25 03:11 | -33.97018 | 151.19362 | 25 ft | 0 kts | 348° |
| 2026-04-25 03:12 | -33.96976 | 151.19351 | 28 ft | 36 kts | 348° |
| 2026-04-25 03:13 | -33.96353 | 151.19191 | 24 ft | 143 kts | 348° |
| 2026-04-25 03:13 | -33.95119 | 151.18860 | 357 ft | 210 kts | 349° |
| 2026-04-25 03:13 | -33.93613 | 151.18886 | 1310 ft | 229 kts | 19° |
| 2026-04-25 03:13 | -33.92439 | 151.20096 | 2663 ft | 224 kts | 60° |
| 2026-04-25 03:14 | -33.92237 | 151.21854 | 4027 ft | 209 kts | 103° |
| 2026-04-25 03:14 | -33.92880 | 151.23400 | 4785 ft | 207 kts | 117° |
| 2026-04-25 03:14 | -33.93537 | 151.24905 | 4973 ft | 200 kts | 114° |
| 2026-04-25 03:14 | -33.93833 | 151.26526 | 4984 ft | 206 kts | 86° |
| 2026-04-25 03:15 | -33.93762 | 151.28417 | 5017 ft | 246 kts | 86° |
| 2026-04-25 03:15 | -33.93700 | 151.30509 | 5206 ft | 252 kts | 86° |
| 2026-04-25 03:15 | -33.93639 | 151.32620 | 6016 ft | 254 kts | 87° |
| 2026-04-25 03:15 | -33.93575 | 151.34828 | 6622 ft | 272 kts | 88° |
| 2026-04-25 03:16 | -33.93506 | 151.37135 | 7550 ft | 277 kts | 88° |
| 2026-04-25 03:16 | -33.93436 | 151.39460 | 8663 ft | 277 kts | 88° |
| 2026-04-25 03:16 | -33.93434 | 151.41792 | 9672 ft | 282 kts | 100° |
| 2026-04-25 03:16 | -33.94248 | 151.43937 | 10485 ft | 293 kts | 129° |
| 2026-04-25 03:17 | -33.95924 | 151.45503 | 10753 ft | 323 kts | 154° |
| 2026-04-25 03:17 | -33.98172 | 151.46190 | 11202 ft | 343 kts | 176° |
| 2026-04-25 03:17 | -34.00531 | 151.45710 | 12017 ft | 351 kts | 202° |
| 2026-04-25 03:17 | -34.02523 | 151.44011 | 12960 ft | 354 kts | 224° |
| 2026-04-25 03:18 | -34.04195 | 151.41808 | 13870 ft | 359 kts | 228° |
| 2026-04-25 03:18 | -34.05840 | 151.39517 | 14643 ft | 365 kts | 228° |
| 2026-04-25 03:18 | -34.07535 | 151.37213 | 15415 ft | 369 kts | 227° |
| 2026-04-25 03:18 | -34.09293 | 151.34921 | 16197 ft | 374 kts | 225° |
| 2026-04-25 03:19 | -34.11100 | 151.32651 | 16975 ft | 378 kts | 224° |
| 2026-04-25 03:19 | -34.12958 | 151.30375 | 17736 ft | 382 kts | 224° |
| 2026-04-25 03:19 | -34.14855 | 151.28089 | 18499 ft | 387 kts | 223° |
| 2026-04-25 03:19 | -34.16779 | 151.25790 | 19187 ft | 391 kts | 223° |
| 2026-04-25 03:20 | -34.18723 | 151.23475 | 19866 ft | 394 kts | 223° |
| 2026-04-25 03:20 | -34.20687 | 151.21141 | 20271 ft | 396 kts | 223° |
| 2026-04-25 03:20 | -34.22656 | 151.18799 | 20394 ft | 401 kts | 223° |
| 2026-04-25 03:20 | -34.24647 | 151.16429 | 20389 ft | 401 kts | 223° |
| 2026-04-25 03:21 | -34.26626 | 151.14071 | 20392 ft | 399 kts | 223° |
| 2026-04-25 03:21 | -34.28605 | 151.11711 | 20396 ft | 399 kts | 223° |
| 2026-04-25 03:21 | -34.30581 | 151.09352 | 20388 ft | 399 kts | 223° |
| 2026-04-25 03:21 | -34.32561 | 151.06987 | 20390 ft | 400 kts | 223° |
| 2026-04-25 03:22 | -34.34538 | 151.04624 | 20386 ft | 400 kts | 223° |
| 2026-04-25 03:22 | -34.36493 | 151.02286 | 20387 ft | 400 kts | 223° |
| 2026-04-25 03:22 | -34.38470 | 150.99915 | 20386 ft | 403 kts | 223° |
| 2026-04-25 03:22 | -34.40489 | 150.97461 | 20406 ft | 420 kts | 224° |
| 2026-04-25 03:23 | -34.42586 | 150.94914 | 20398 ft | 434 kts | 223° |
| 2026-04-25 03:23 | -34.44756 | 150.92298 | 20391 ft | 446 kts | 223° |
| 2026-04-25 03:23 | -34.46978 | 150.89635 | 20386 ft | 451 kts | 223° |
| 2026-04-25 03:23 | -34.49204 | 150.86977 | 20374 ft | 448 kts | 223° |
| 2026-04-25 03:24 | -34.51423 | 150.84331 | 20371 ft | 447 kts | 223° |
| 2026-04-25 03:24 | -34.53640 | 150.81684 | 20375 ft | 447 kts | 223° |
| 2026-04-25 03:24 | -34.55835 | 150.79017 | 20376 ft | 447 kts | 226° |
| 2026-04-25 03:24 | -34.57804 | 150.76084 | 20383 ft | 449 kts | 232° |
| 2026-04-25 03:25 | -34.59647 | 150.73019 | 20382 ft | 450 kts | 233° |
| 2026-04-25 03:25 | -34.61461 | 150.69930 | 20374 ft | 450 kts | 233° |
| 2026-04-25 03:25 | -34.63277 | 150.66831 | 20369 ft | 450 kts | 233° |
| 2026-04-25 03:25 | -34.65104 | 150.63734 | 20375 ft | 451 kts | 233° |
| 2026-04-25 03:26 | -34.66937 | 150.60648 | 20372 ft | 451 kts | 233° |
| 2026-04-25 03:26 | -34.68780 | 150.57564 | 20379 ft | 451 kts | 233° |
| 2026-04-25 03:26 | -34.70621 | 150.54493 | 20367 ft | 451 kts | 233° |
| 2026-04-25 03:26 | -34.72469 | 150.51412 | 20373 ft | 451 kts | 233° |
| 2026-04-25 03:27 | -34.74312 | 150.48338 | 20367 ft | 450 kts | 233° |
| 2026-04-25 03:27 | -34.76158 | 150.45259 | 20368 ft | 450 kts | 233° |
| 2026-04-25 03:27 | -34.78001 | 150.42181 | 20366 ft | 450 kts | 233° |
| 2026-04-25 03:27 | -34.79839 | 150.39107 | 20368 ft | 449 kts | 233° |
| 2026-04-25 03:28 | -34.81678 | 150.36030 | 20364 ft | 449 kts | 233° |
| 2026-04-25 03:28 | -34.83516 | 150.32951 | 20363 ft | 449 kts | 233° |
| 2026-04-25 03:28 | -34.85353 | 150.29870 | 20365 ft | 449 kts | 233° |
| 2026-04-25 03:28 | -34.87176 | 150.26810 | 20357 ft | 437 kts | 233° |
| 2026-04-25 03:29 | -34.88921 | 150.23876 | 20162 ft | 420 kts | 233° |
| 2026-04-25 03:29 | -34.90600 | 150.21050 | 19910 ft | 405 kts | 233° |
| 2026-04-25 03:29 | -34.92225 | 150.18315 | 19664 ft | 392 kts | 233° |
| 2026-04-25 03:29 | -34.93800 | 150.15665 | 19421 ft | 381 kts | 233° |
| 2026-04-25 03:30 | -34.95338 | 150.13073 | 19184 ft | 375 kts | 233° |
| 2026-04-25 03:30 | -34.96863 | 150.10502 | 18952 ft | 373 kts | 234° |
| 2026-04-25 03:30 | -34.98385 | 150.07934 | 18726 ft | 374 kts | 234° |
| 2026-04-25 03:30 | -34.99903 | 150.05370 | 18346 ft | 372 kts | 234° |
| 2026-04-25 03:31 | -35.01405 | 150.02833 | 17885 ft | 367 kts | 234° |
| 2026-04-25 03:31 | -35.02894 | 150.00314 | 17399 ft | 364 kts | 234° |
| 2026-04-25 03:31 | -35.04367 | 149.97823 | 16920 ft | 361 kts | 234° |
| 2026-04-25 03:31 | -35.05854 | 149.95374 | 16417 ft | 358 kts | 231° |
| 2026-04-25 03:32 | -35.07515 | 149.93107 | 15830 ft | 359 kts | 226° |
| 2026-04-25 03:32 | -35.09257 | 149.90926 | 15337 ft | 357 kts | 225° |
| 2026-04-25 03:32 | -35.10993 | 149.88774 | 14863 ft | 355 kts | 226° |
| 2026-04-25 03:32 | -35.12711 | 149.86615 | 14388 ft | 353 kts | 226° |
| 2026-04-25 03:33 | -35.14403 | 149.84455 | 13876 ft | 351 kts | 227° |
| 2026-04-25 03:33 | -35.15516 | 149.83022 | 13557 ft | 349 kts | 227° |
| 2026-04-25 03:33 | -35.17167 | 149.80888 | 13406 ft | 343 kts | 227° |
| 2026-04-25 03:33 | -35.18784 | 149.78796 | 13363 ft | 332 kts | 227° |
| 2026-04-25 03:34 | -35.20331 | 149.76793 | 13357 ft | 316 kts | 227° |
| 2026-04-25 03:34 | -35.21807 | 149.74883 | 13348 ft | 302 kts | 227° |
| 2026-04-25 03:34 | -35.23237 | 149.73031 | 12884 ft | 303 kts | 227° |
| 2026-04-25 03:34 | -35.24727 | 149.71098 | 11923 ft | 322 kts | 227° |
| 2026-04-25 03:35 | -35.26290 | 149.69069 | 11238 ft | 330 kts | 227° |
| 2026-04-25 03:35 | -35.27847 | 149.67049 | 11082 ft | 319 kts | 227° |
| 2026-04-25 03:35 | -35.29337 | 149.65116 | 11001 ft | 306 kts | 227° |
| 2026-04-25 03:35 | -35.30771 | 149.63250 | 10914 ft | 295 kts | 227° |
| 2026-04-25 03:36 | -35.32151 | 149.61457 | 10838 ft | 285 kts | 227° |
| 2026-04-25 03:36 | -35.33489 | 149.59718 | 10687 ft | 276 kts | 227° |
| 2026-04-25 03:36 | -35.34779 | 149.58041 | 10487 ft | 265 kts | 227° |
| 2026-04-25 03:36 | -35.36022 | 149.56424 | 10233 ft | 256 kts | 227° |
| 2026-04-25 03:37 | -35.37229 | 149.54852 | 9949 ft | 250 kts | 227° |
| 2026-04-25 03:37 | -35.38785 | 149.52826 | 9574 ft | 243 kts | 227° |
| 2026-04-25 03:37 | -35.39561 | 149.51814 | 9395 ft | 240 kts | 227° |
| 2026-04-25 03:37 | -35.40693 | 149.50335 | 9093 ft | 236 kts | 227° |
| 2026-04-25 03:38 | -35.41811 | 149.48876 | 8760 ft | 233 kts | 227° |
| 2026-04-25 03:38 | -35.42915 | 149.47434 | 8427 ft | 231 kts | 227° |
| 2026-04-25 03:38 | -35.44009 | 149.46006 | 8098 ft | 229 kts | 227° |
| 2026-04-25 03:38 | -35.45092 | 149.44592 | 7768 ft | 227 kts | 227° |
| 2026-04-25 03:39 | -35.46127 | 149.43150 | 7434 ft | 224 kts | 239° |
| 2026-04-25 03:39 | -35.46558 | 149.41387 | 7083 ft | 222 kts | 266° |
| 2026-04-25 03:39 | -35.46590 | 149.39463 | 6757 ft | 220 kts | 269° |
| 2026-04-25 03:39 | -35.46989 | 149.37684 | 6299 ft | 222 kts | 236° |
| 2026-04-25 03:40 | -35.47931 | 149.36171 | 5876 ft | 225 kts | 233° |
| 2026-04-25 03:40 | -35.48905 | 149.34663 | 5503 ft | 227 kts | 232° |
| 2026-04-25 03:40 | -35.49870 | 149.33185 | 5413 ft | 216 kts | 232° |
| 2026-04-25 03:40 | -35.50779 | 149.31797 | 5361 ft | 203 kts | 232° |
| 2026-04-25 03:41 | -35.51630 | 149.30490 | 5327 ft | 191 kts | 233° |
| 2026-04-25 03:41 | -35.52369 | 149.29162 | 5330 ft | 189 kts | 255° |
| 2026-04-25 03:41 | -35.52480 | 149.27569 | 5369 ft | 188 kts | 269° |
| 2026-04-25 03:41 | -35.52530 | 149.25951 | 5364 ft | 191 kts | 267° |
| 2026-04-25 03:42 | -35.52584 | 149.24322 | 5351 ft | 190 kts | 268° |
| 2026-04-25 03:42 | -35.52643 | 149.22710 | 5334 ft | 189 kts | 268° |
| 2026-04-25 03:42 | -35.52666 | 149.21110 | 5327 ft | 187 kts | 280° |
| 2026-04-25 03:42 | -35.51977 | 149.19854 | 5353 ft | 181 kts | 331° |
| 2026-04-25 03:43 | -35.50761 | 149.19539 | 5362 ft | 181 kts | 354° |
| 2026-04-25 03:43 | -35.49524 | 149.19478 | 5360 ft | 178 kts | 354° |
| 2026-04-25 03:43 | -35.48286 | 149.19450 | 5166 ft | 177 kts | 356° |
| 2026-04-25 03:43 | -35.47067 | 149.19444 | 4913 ft | 169 kts | 356° |
| 2026-04-25 03:44 | -35.45940 | 149.19446 | 4691 ft | 155 kts | 356° |
| 2026-04-25 03:44 | -35.44896 | 149.19444 | 4500 ft | 145 kts | 356° |
| 2026-04-25 03:44 | -35.43892 | 149.19444 | 4314 ft | 144 kts | 357° |
| 2026-04-25 03:44 | -35.42900 | 149.19444 | 4131 ft | 142 kts | 356° |
| 2026-04-25 03:45 | -35.41934 | 149.19444 | 3954 ft | 140 kts | 358° |
| 2026-04-25 03:45 | -35.40948 | 149.19443 | 3777 ft | 141 kts | 357° |
| 2026-04-25 03:45 | -35.39965 | 149.19443 | 3584 ft | 142 kts | 356° |
| 2026-04-25 03:45 | -35.38985 | 149.19444 | 3404 ft | 138 kts | 356° |
| 2026-04-25 03:46 | -35.38046 | 149.19445 | 3214 ft | 136 kts | 356° |
| 2026-04-25 03:46 | -35.37095 | 149.19444 | 3042 ft | 138 kts | 358° |
| 2026-04-25 03:46 | -35.36113 | 149.19442 | 2847 ft | 139 kts | 359° |
| 2026-04-25 03:46 | -35.35164 | 149.19443 | 2624 ft | 136 kts | 358° |
| 2026-04-25 03:47 | -35.34239 | 149.19444 | 2437 ft | 133 kts | 358° |
| 2026-04-25 03:47 | -35.33314 | 149.19452 | 2250 ft | 133 kts | 358° |
| 2026-04-25 03:47 | -35.32392 | 149.19451 | 2067 ft | 133 kts | 358° |
| 2026-04-25 03:47 | -35.31477 | 149.19450 | 1927 ft | 128 kts | 357° |
| 2026-04-25 03:48 | -35.30632 | 149.19450 | 1884 ft | 111 kts | 358° |
| 2026-04-25 03:48 | -35.29986 | 149.19445 | 1876 ft | 72 kts | 359° |
| 2026-04-25 03:48 | -35.29625 | 149.19449 | 1882 ft | 23 kts | 21° |
| 2026-04-25 03:48 | -35.29599 | 149.19552 | 1879 ft | 12 kts | 112° |
| 2026-04-25 03:49 | -35.29600 | 149.19556 | 1879 ft | 0 kts | 113° |
| 2026-04-25 03:49 | -35.29614 | 149.19578 | 1881 ft | 13 kts | 139° |
| 2026-04-25 03:49 | -35.29731 | 149.19595 | 1883 ft | 18 kts | 180° |
| 2026-04-25 03:50 | -35.29852 | 149.19595 | 1879 ft | 17 kts | 180° |
| 2026-04-25 03:50 | -35.29971 | 149.19596 | 1879 ft | 17 kts | 179° |
| 2026-04-25 03:50 | -35.30086 | 149.19598 | 1881 ft | 16 kts | 179° |
| 2026-04-25 03:50 | -35.30158 | 149.19620 | 1880 ft | 6 kts | 123° |
| 2026-04-25 03:51 | -35.30171 | 149.19660 | 1876 ft | 3 kts | 76° |
| 2026-04-25 03:51 | -35.30155 | 149.19660 | 1883 ft | 2 kts | 303° |
| 2026-04-25 03:51 | -35.30158 | 149.19644 | 1881 ft | 0 kts | 242° |
| 2026-04-25 03:51 | -35.30158 | 149.19646 | 1881 ft | 2 kts | 238° |
| 2026-04-25 03:52 | -35.30150 | 149.19662 | 1883 ft | 0 kts | 245° |